Time;durP1;ratioP1;P1;durP2;ratioP2;P2;SDS_P1;SDS_P2;PMS_P1;PMS_P2;Temp;Humidity;BMP_temperature;BMP_pressure;BME280_temperature;BME280_humidity;BME280_pressure;Samples;Min_cycle;Max_cycle;Signal;HPM_P1;HPM_P2
2023/04/15 00:01:40;;;;;;;23.50;21.90;;;;;;;;;;5041312;28;20517;-82
2023/04/15 00:04:07;;;;;;;24.77;22.97;;;;;;;;;;5041775;28;20406;-83
2023/04/15 00:06:34;;;;;;;22.37;21.13;;;;;;;;;;5040519;28;20460;-83
2023/04/15 00:09:02;;;;;;;23.80;22.30;;;;;;;;;;5041287;28;20823;-83
2023/04/15 00:11:29;;;;;;;23.30;21.90;;;;;;;;;;5041283;28;20449;-82
2023/04/15 00:13:57;;;;;;;24.13;22.47;;;;;;;;;;5041469;28;20426;-83
2023/04/15 00:16:24;;;;;;;23.37;21.87;;;;;;;;;;5040924;28;20459;-84
2023/04/15 00:18:51;;;;;;;24.37;22.77;;;;;;;;;;5041246;28;20491;-83
2023/04/15 00:21:18;;;;;;;24.10;22.17;;;;;;;;;;5041390;28;20463;-83
2023/04/15 00:23:48;;;;;;;24.20;22.50;;;;;;;;;;5041149;28;20270;-83
2023/04/15 00:26:18;;;;;;;23.03;21.47;;;;;;;;;;5040842;28;20414;-83
2023/04/15 00:28:45;;;;;;;23.97;22.47;;;;;;;;;;5041413;28;20563;-82
2023/04/15 00:31:12;;;;;;;23.63;22.20;;;;;;;;;;5040662;28;20490;-83
2023/04/15 00:33:39;;;;;;;23.50;22.00;;;;;;;;;;5041662;28;20443;-84
2023/04/15 00:36:07;;;;;;;23.67;22.27;;;;;;;;;;5041013;28;20453;-83
2023/04/15 00:38:34;;;;;;;24.97;23.27;;;;;;;;;;5041410;28;20455;-83
2023/04/15 00:41:02;;;;;;;23.53;22.10;;;;;;;;;;5040384;28;20471;-83
2023/04/15 00:43:31;;;;;;;23.53;22.13;;;;;;;;;;5040634;28;21000;-84
2023/04/15 00:45:59;;;;;;;22.73;21.20;;;;;;;;;;5040527;28;20414;-83
2023/04/15 00:48:26;;;;;;;24.33;22.60;;;;;;;;;;5040808;28;20521;-82
2023/04/15 00:50:53;;;;;;;24.70;23.07;;;;;;;;;;5039562;28;21075;-83
2023/04/15 00:53:20;;;;;;;23.90;22.40;;;;;;;;;;5041060;28;20484;-84
2023/04/15 00:55:47;;;;;;;24.33;22.73;;;;;;;;;;5039742;28;20422;-83
2023/04/15 00:58:15;;;;;;;23.20;21.70;;;;;;;;;;5040479;28;20446;-83
2023/04/15 01:00:43;;;;;;;22.77;21.17;;;;;;;;;;5041660;28;20506;-83
2023/04/15 01:03:10;;;;;;;23.20;21.77;;;;;;;;;;5041305;28;20530;-82
2023/04/15 01:05:38;;;;;;;24.43;22.50;;;;;;;;;;5040845;28;20479;-82
2023/04/15 01:08:05;;;;;;;24.30;22.50;;;;;;;;;;5040730;28;20903;-83
2023/04/15 01:10:32;;;;;;;23.70;22.10;;;;;;;;;;5040461;28;20517;-83
2023/04/15 01:12:59;;;;;;;23.92;22.42;;;;;;;;;;5035986;28;20458;-83
2023/04/15 01:15:26;;;;;;;24.40;22.70;;;;;;;;;;5036646;28;20295;-83
2023/04/15 01:17:55;;;;;;;23.97;22.47;;;;;;;;;;5036134;28;20827;-82
2023/04/15 01:20:22;;;;;;;24.60;22.90;;;;;;;;;;5035299;28;20450;-83
2023/04/15 01:22:49;;;;;;;22.80;21.30;;;;;;;;;;5036854;28;20493;-83
2023/04/15 01:25:18;;;;;;;23.27;21.77;;;;;;;;;;5036614;28;20511;-82
2023/04/15 01:27:47;;;;;;;23.60;22.13;;;;;;;;;;5036034;28;20871;-82
2023/04/15 01:30:14;;;;;;;25.50;23.90;;;;;;;;;;5035185;28;20494;-82
2023/04/15 01:32:41;;;;;;;23.73;22.23;;;;;;;;;;5038596;28;20549;-82
2023/04/15 01:35:08;;;;;;;24.23;22.43;;;;;;;;;;5035023;28;20422;-82
2023/04/15 01:37:35;;;;;;;23.70;22.10;;;;;;;;;;5033779;28;20512;-83
2023/04/15 01:40:03;;;;;;;24.73;23.03;;;;;;;;;;5033727;28;20442;-82
2023/04/15 01:42:30;;;;;;;24.60;23.00;;;;;;;;;;5034605;28;20471;-82
2023/04/15 01:44:58;;;;;;;25.30;23.60;;;;;;;;;;5034894;28;20463;-83
2023/04/15 01:47:25;;;;;;;26.53;24.40;;;;;;;;;;5034147;28;20414;-82
2023/04/15 01:49:53;;;;;;;24.80;23.10;;;;;;;;;;5034446;28;20545;-83
2023/04/15 01:52:20;;;;;;;29.77;27.27;;;;;;;;;;5033993;28;20483;-83
2023/04/15 01:54:47;;;;;;;25.00;23.40;;;;;;;;;;5034882;28;20434;-83
2023/04/15 01:57:14;;;;;;;26.30;24.43;;;;;;;;;;5034351;28;20452;-83
2023/04/15 01:59:42;;;;;;;26.17;24.37;;;;;;;;;;5034510;28;20476;-83
2023/04/15 02:02:11;;;;;;;26.13;24.33;;;;;;;;;;5034784;28;20448;-82
2023/04/15 02:04:38;;;;;;;26.90;24.80;;;;;;;;;;5035289;28;20513;-83
2023/04/15 02:07:05;;;;;;;28.10;25.70;;;;;;;;;;5034218;28;20455;-83
2023/04/15 02:09:33;;;;;;;26.23;24.45;;;;;;;;;;5033612;28;20995;-83
2023/04/15 02:12:00;;;;;;;28.23;25.83;;;;;;;;;;5034404;28;20208;-82
2023/04/15 02:14:27;;;;;;;28.73;26.60;;;;;;;;;;5034533;28;20419;-83
2023/04/15 02:16:54;;;;;;;27.87;25.67;;;;;;;;;;5034037;28;20193;-82
2023/04/15 02:19:25;;;;;;;25.40;23.50;;;;;;;;;;5034241;28;20946;-83
2023/04/15 02:21:52;;;;;;;27.27;25.17;;;;;;;;;;5034875;28;20484;-83
2023/04/15 02:24:20;;;;;;;28.23;26.17;;;;;;;;;;5034815;28;20514;-82
2023/04/15 02:26:46;;;;;;;27.85;25.77;;;;;;;;;;5033705;28;20287;-83
2023/04/15 02:29:13;;;;;;;29.00;26.80;;;;;;;;;;5034100;28;20763;-83
2023/04/15 02:31:41;;;;;;;28.10;25.70;;;;;;;;;;5034868;28;20480;-82
2023/04/15 02:34:08;;;;;;;25.87;24.10;;;;;;;;;;5034542;28;20654;-83
2023/04/15 02:36:36;;;;;;;28.90;26.90;;;;;;;;;;5034406;28;20530;-83
2023/04/15 02:39:03;;;;;;;27.83;25.87;;;;;;;;;;5034331;28;20564;-83
2023/04/15 02:41:30;;;;;;;29.07;26.80;;;;;;;;;;5034957;28;20451;-83
2023/04/15 02:43:57;;;;;;;27.27;25.37;;;;;;;;;;5034644;28;20492;-82
2023/04/15 02:46:24;;;;;;;27.53;25.40;;;;;;;;;;5034291;28;20448;-83
2023/04/15 02:48:53;;;;;;;27.42;25.52;;;;;;;;;;5034655;28;20438;-84
2023/04/15 02:51:21;;;;;;;26.97;24.87;;;;;;;;;;5034316;28;20677;-84
2023/04/15 02:53:50;;;;;;;28.50;26.40;;;;;;;;;;5034528;28;20418;-83
2023/04/15 02:56:18;;;;;;;28.00;26.00;;;;;;;;;;5034195;28;20456;-83
2023/04/15 02:58:45;;;;;;;28.80;26.50;;;;;;;;;;5034592;28;20442;-83
2023/04/15 03:01:12;;;;;;;28.40;26.27;;;;;;;;;;5033894;28;20445;-84
2023/04/15 03:03:39;;;;;;;27.37;25.23;;;;;;;;;;5035678;28;20521;-83
2023/04/15 03:06:07;;;;;;;26.47;24.70;;;;;;;;;;5036082;28;20451;-83
2023/04/15 03:08:35;;;;;;;27.77;25.57;;;;;;;;;;5034743;28;20499;-84
2023/04/15 03:11:03;;;;;;;28.80;26.53;;;;;;;;;;5034427;28;20806;-84
2023/04/15 03:13:30;;;;;;;26.67;24.87;;;;;;;;;;5034394;28;20419;-83
2023/04/15 03:15:57;;;;;;;26.87;25.00;;;;;;;;;;5034210;28;20425;-83
2023/04/15 03:18:24;;;;;;;26.33;24.43;;;;;;;;;;5035088;28;20858;-83
2023/04/15 03:20:51;;;;;;;26.80;24.90;;;;;;;;;;5034173;28;20532;-83
2023/04/15 03:23:19;;;;;;;25.43;23.63;;;;;;;;;;5033906;28;20479;-84
2023/04/15 03:25:46;;;;;;;26.73;24.83;;;;;;;;;;5034634;28;20426;-84
2023/04/15 03:28:15;;;;;;;26.23;24.33;;;;;;;;;;5034848;28;20543;-84
2023/04/15 03:30:42;;;;;;;27.57;25.37;;;;;;;;;;5034697;28;20422;-83
2023/04/15 03:33:09;;;;;;;26.87;24.93;;;;;;;;;;5035041;28;20448;-84
2023/04/15 03:35:36;;;;;;;27.23;25.10;;;;;;;;;;5034594;28;20461;-83
2023/04/15 03:38:03;;;;;;;28.17;25.97;;;;;;;;;;5038408;28;20646;-84
2023/04/15 03:40:30;;;;;;;26.33;24.43;;;;;;;;;;5038709;28;20448;-84
2023/04/15 03:42:57;;;;;;;26.10;24.10;;;;;;;;;;5038474;28;20493;-83
2023/04/15 03:45:26;;;;;;;25.73;23.93;;;;;;;;;;5037951;28;20448;-83
2023/04/15 03:47:53;;;;;;;24.53;22.73;;;;;;;;;;5037852;28;20505;-84
2023/04/15 03:50:20;;;;;;;25.80;23.90;;;;;;;;;;5037151;28;20503;-83
2023/04/15 03:52:47;;;;;;;26.40;24.40;;;;;;;;;;5037470;28;20426;-84
2023/04/15 03:55:14;;;;;;;25.93;24.10;;;;;;;;;;5037539;28;20505;-83
2023/04/15 03:57:41;;;;;;;26.03;24.20;;;;;;;;;;5037240;28;20800;-84
2023/04/15 04:00:10;;;;;;;27.67;25.67;;;;;;;;;;5038932;28;20775;-84
2023/04/15 04:02:38;;;;;;;27.57;25.20;;;;;;;;;;5038482;28;20403;-84
2023/04/15 04:05:05;;;;;;;26.17;24.07;;;;;;;;;;5038474;28;20483;-84
2023/04/15 04:07:32;;;;;;;27.20;25.10;;;;;;;;;;5037562;28;20432;-83
2023/04/15 04:10:00;;;;;;;26.10;24.20;;;;;;;;;;5037376;28;20486;-83
2023/04/15 04:12:27;;;;;;;28.38;25.95;;;;;;;;;;5037913;28;20948;-83
2023/04/15 04:14:54;;;;;;;27.87;25.67;;;;;;;;;;5037989;28;20205;-84
2023/04/15 04:17:21;;;;;;;26.60;24.70;;;;;;;;;;5037749;28;20410;-84
2023/04/15 04:19:49;;;;;;;27.57;25.30;;;;;;;;;;5036807;28;21348;-83
2023/04/15 04:22:16;;;;;;;27.50;25.27;;;;;;;;;;5037482;28;20432;-83
2023/04/15 04:24:43;;;;;;;28.17;25.80;;;;;;;;;;5037539;28;20549;-84
2023/04/15 04:27:10;;;;;;;28.50;26.20;;;;;;;;;;5037239;28;20418;-84
2023/04/15 04:29:37;;;;;;;27.97;25.67;;;;;;;;;;5037201;28;20596;-85
2023/04/15 04:32:04;;;;;;;28.30;25.97;;;;;;;;;;5037602;28;20431;-83
2023/04/15 04:34:31;;;;;;;27.83;25.70;;;;;;;;;;5038809;28;20459;-80
2023/04/15 04:37:00;;;;;;;29.10;26.67;;;;;;;;;;5038110;28;20484;-80
2023/04/15 04:39:27;;;;;;;29.30;26.77;;;;;;;;;;5038398;28;20635;-80
2023/04/15 04:41:54;;;;;;;28.60;26.33;;;;;;;;;;5037462;28;20454;-80
2023/04/15 04:44:23;;;;;;;27.97;25.77;;;;;;;;;;5038395;28;20792;-80
2023/04/15 04:46:50;;;;;;;28.60;26.40;;;;;;;;;;5037452;28;20430;-80
2023/04/15 04:49:17;;;;;;;29.40;27.10;;;;;;;;;;5038081;28;20529;-80
2023/04/15 04:51:45;;;;;;;29.57;27.10;;;;;;;;;;5036984;28;20963;-80
2023/04/15 04:54:15;;;;;;;30.03;27.50;;;;;;;;;;5038163;28;20514;-80
2023/04/15 04:56:42;;;;;;;29.25;26.92;;;;;;;;;;5037521;28;20452;-80
2023/04/15 04:59:09;;;;;;;29.15;26.73;;;;;;;;;;5037929;28;20717;-80
2023/04/15 05:01:36;;;;;;;28.90;26.70;;;;;;;;;;5037494;28;20284;-80
2023/04/15 05:04:03;;;;;;;31.00;28.40;;;;;;;;;;5037636;28;20450;-80
2023/04/15 05:06:31;;;;;;;28.20;26.00;;;;;;;;;;5036800;28;20826;-80
2023/04/15 05:08:58;;;;;;;30.13;27.73;;;;;;;;;;5036930;28;20469;-80
2023/04/15 05:11:27;;;;;;;30.87;27.87;;;;;;;;;;5036758;28;20453;-80
2023/04/15 05:13:54;;;;;;;29.97;27.47;;;;;;;;;;5037299;28;20898;-80
2023/04/15 05:16:21;;;;;;;31.23;28.47;;;;;;;;;;5040200;28;20488;-80
2023/04/15 05:18:48;;;;;;;32.30;29.60;;;;;;;;;;5038120;28;20476;-80
2023/04/15 05:21:15;;;;;;;30.90;28.37;;;;;;;;;;5040058;28;20944;-80
2023/04/15 05:23:42;;;;;;;31.70;28.90;;;;;;;;;;5038506;28;20483;-80
2023/04/15 05:26:09;;;;;;;30.30;27.80;;;;;;;;;;5038222;28;20430;-80
2023/04/15 05:28:38;;;;;;;29.85;27.35;;;;;;;;;;5036658;28;20806;-80
2023/04/15 05:31:06;;;;;;;31.92;29.23;;;;;;;;;;5036154;28;20208;-80
2023/04/15 05:33:33;;;;;;;31.55;28.95;;;;;;;;;;5042012;28;20231;-80
2023/04/15 05:36:00;;;;;;;30.53;27.83;;;;;;;;;;5040133;28;20263;-80
2023/04/15 05:38:27;;;;;;;29.77;27.07;;;;;;;;;;5043466;28;20470;-79
2023/04/15 05:40:54;;;;;;;33.30;30.10;;;;;;;;;;5039160;28;20430;-80
2023/04/15 05:43:21;;;;;;;29.70;27.40;;;;;;;;;;5040033;28;20460;-80
2023/04/15 05:45:50;;;;;;;32.30;29.40;;;;;;;;;;5037080;28;20472;-80
2023/04/15 05:48:17;;;;;;;31.10;28.30;;;;;;;;;;5040626;28;20475;-81
2023/04/15 05:50:44;;;;;;;30.20;27.77;;;;;;;;;;5039340;28;20936;-80
2023/04/15 05:53:11;;;;;;;31.30;28.67;;;;;;;;;;5037438;28;20501;-80
2023/04/15 05:55:38;;;;;;;30.57;27.97;;;;;;;;;;5039092;28;20414;-81
2023/04/15 05:58:05;;;;;;;29.50;26.70;;;;;;;;;;5035452;28;20465;-80
2023/04/15 06:00:32;;;;;;;26.93;24.87;;;;;;;;;;5035302;28;20463;-81
2023/04/15 06:03:01;;;;;;;29.70;27.13;;;;;;;;;;5039564;28;20448;-80
2023/04/15 06:05:28;;;;;;;30.03;27.57;;;;;;;;;;5036548;28;20483;-81
2023/04/15 06:07:55;;;;;;;29.47;27.07;;;;;;;;;;5034314;28;20947;-81
2023/04/15 06:10:22;;;;;;;31.30;28.70;;;;;;;;;;5035023;28;20483;-80
2023/04/15 06:12:49;;;;;;;29.30;26.97;;;;;;;;;;5035204;28;20496;-81
2023/04/15 06:15:16;;;;;;;29.10;26.83;;;;;;;;;;5034968;28;20455;-80
2023/04/15 06:17:43;;;;;;;27.87;25.63;;;;;;;;;;5034232;28;20455;-81
2023/04/15 06:20:13;;;;;;;28.50;26.17;;;;;;;;;;5034837;28;21045;-81
2023/04/15 06:22:40;;;;;;;28.67;26.57;;;;;;;;;;5033421;28;20484;-77
2023/04/15 06:25:08;;;;;;;29.10;26.70;;;;;;;;;;5033067;28;20541;-82
2023/04/15 06:27:35;;;;;;;27.40;25.30;;;;;;;;;;5032348;28;20786;-76
2023/04/15 06:30:03;;;;;;;29.33;26.77;;;;;;;;;;5031949;28;20458;-76
2023/04/15 06:32:30;;;;;;;27.23;25.00;;;;;;;;;;5032402;28;20914;-76
2023/04/15 06:34:57;;;;;;;28.23;25.93;;;;;;;;;;5032966;28;20421;-76
2023/04/15 06:37:25;;;;;;;29.97;27.43;;;;;;;;;;5032080;28;20451;-77
2023/04/15 06:39:52;;;;;;;28.87;26.57;;;;;;;;;;5031665;28;20515;-77
2023/04/15 06:42:19;;;;;;;29.67;27.27;;;;;;;;;;5032315;28;20430;-76
2023/04/15 06:44:46;;;;;;;28.93;26.70;;;;;;;;;;5032574;28;20572;-76
2023/04/15 06:47:14;;;;;;;31.27;28.50;;;;;;;;;;5032700;28;20447;-79
2023/04/15 06:49:41;;;;;;;34.50;31.40;;;;;;;;;;5032082;28;20799;-79
2023/04/15 06:52:09;;;;;;;35.03;31.90;;;;;;;;;;5033090;28;20467;-78
2023/04/15 06:54:37;;;;;;;36.60;33.07;;;;;;;;;;5033386;28;20448;-78
2023/04/15 06:57:04;;;;;;;36.20;32.90;;;;;;;;;;5036080;28;20430;-76
2023/04/15 06:59:31;;;;;;;37.90;33.77;;;;;;;;;;5033392;28;20457;-77
2023/04/15 07:01:58;;;;;;;37.50;34.03;;;;;;;;;;5032720;28;20597;-78
2023/04/15 07:04:26;;;;;;;38.93;35.37;;;;;;;;;;5032858;28;20453;-78
2023/04/15 07:06:54;;;;;;;35.70;32.20;;;;;;;;;;5032151;28;20415;-77
2023/04/15 07:09:21;;;;;;;37.60;34.00;;;;;;;;;;5032404;28;20471;-78
2023/04/15 07:11:50;;;;;;;38.33;34.80;;;;;;;;;;5036249;28;20476;-78
2023/04/15 07:14:17;;;;;;;39.53;35.57;;;;;;;;;;5035970;28;20460;-78
2023/04/15 07:16:44;;;;;;;38.93;35.00;;;;;;;;;;5035981;28;20434;-77
2023/04/15 07:19:11;;;;;;;39.27;35.60;;;;;;;;;;5036551;28;20473;-78
2023/04/15 07:21:38;;;;;;;36.60;32.43;;;;;;;;;;5036888;28;21042;-77
2023/04/15 07:24:05;;;;;;;42.00;37.70;;;;;;;;;;5036135;28;20426;-77
2023/04/15 07:26:32;;;;;;;40.90;36.80;;;;;;;;;;5035312;28;20852;-78
2023/04/15 07:29:01;;;;;;;39.20;35.30;;;;;;;;;;5037019;28;20454;-80
2023/04/15 07:31:28;;;;;;;43.93;38.27;;;;;;;;;;5036576;28;20426;-85
2023/04/15 07:33:55;;;;;;;42.23;37.77;;;;;;;;;;5038288;28;20426;-86
2023/04/15 07:36:22;;;;;;;40.27;36.27;;;;;;;;;;5037591;28;20472;-84
2023/04/15 07:38:49;;;;;;;41.83;37.27;;;;;;;;;;5037755;28;20503;-80
2023/04/15 07:41:16;;;;;;;40.83;36.70;;;;;;;;;;5035276;28;20499;-78
2023/04/15 07:43:44;;;;;;;45.77;39.90;;;;;;;;;;5035276;28;20517;-78
2023/04/15 07:46:13;;;;;;;40.60;35.43;;;;;;;;;;5034264;28;20487;-77
2023/04/15 07:48:40;;;;;;;29.53;26.70;;;;;;;;;;5035726;28;20462;-78
2023/04/15 07:51:07;;;;;;;30.53;28.07;;;;;;;;;;5036578;28;20451;-78
2023/04/15 07:53:35;;;;;;;33.33;30.23;;;;;;;;;;5037037;28;20459;-78
2023/04/15 07:56:02;;;;;;;31.50;28.50;;;;;;;;;;5036423;28;20426;-78
2023/04/15 07:58:29;;;;;;;30.87;28.17;;;;;;;;;;5036495;28;20983;-78
2023/04/15 08:00:56;;;;;;;26.87;24.70;;;;;;;;;;5035650;28;20803;-78
2023/04/15 08:03:26;;;;;;;29.13;26.73;;;;;;;;;;5036506;28;21099;-77
2023/04/15 08:05:53;;;;;;;29.53;26.90;;;;;;;;;;5035792;28;20543;-78
2023/04/15 08:08:21;;;;;;;27.93;25.53;;;;;;;;;;5036073;28;20445;-78
2023/04/15 08:10:48;;;;;;;28.20;25.93;;;;;;;;;;5043663;28;20490;-79
2023/04/15 08:13:15;;;;;;;28.17;25.80;;;;;;;;;;5044141;28;20460;-79
2023/04/15 08:15:42;;;;;;;27.57;25.33;;;;;;;;;;5042325;28;20444;-78
2023/04/15 08:18:09;;;;;;;28.37;26.07;;;;;;;;;;5042313;28;20895;-78
2023/04/15 08:20:38;;;;;;;29.30;26.83;;;;;;;;;;5041754;28;20434;-78
2023/04/15 08:23:05;;;;;;;26.20;24.20;;;;;;;;;;5039665;28;20426;-79
2023/04/15 08:25:32;;;;;;;26.03;24.20;;;;;;;;;;5040010;28;20853;-78
2023/04/15 08:27:59;;;;;;;28.50;26.10;;;;;;;;;;5041816;28;20448;-78
2023/04/15 08:30:26;;;;;;;27.20;25.17;;;;;;;;;;5041792;28;20474;-78
2023/04/15 08:32:53;;;;;;;28.80;26.60;;;;;;;;;;5041725;28;20456;-77
2023/04/15 08:35:21;;;;;;;28.83;26.63;;;;;;;;;;5040538;28;20426;-78
2023/04/15 08:37:49;;;;;;;28.50;26.33;;;;;;;;;;5039021;28;20518;-79
2023/04/15 08:40:16;;;;;;;27.40;25.03;;;;;;;;;;5038023;28;20458;-78
2023/04/15 08:42:45;;;;;;;28.50;26.30;;;;;;;;;;5039881;28;20430;-78
2023/04/15 08:45:12;;;;;;;29.17;26.73;;;;;;;;;;5039181;28;20485;-78
2023/04/15 08:47:39;;;;;;;26.57;24.67;;;;;;;;;;5037827;28;20484;-78
2023/04/15 08:50:09;;;;;;;30.77;28.73;;;;;;;;;;5038583;28;20532;-78
2023/04/15 08:52:36;;;;;;;28.90;26.87;;;;;;;;;;5037655;28;20484;-78
2023/04/15 08:55:06;;;;;;;30.30;28.07;;;;;;;;;;5037942;28;20453;-78
2023/04/15 08:57:33;;;;;;;27.50;25.60;;;;;;;;;;5036623;28;20936;-78
2023/04/15 09:00:03;;;;;;;27.20;25.30;;;;;;;;;;5036634;28;20472;-77
2023/04/15 09:02:31;;;;;;;27.40;25.40;;;;;;;;;;5036904;28;20485;-78
2023/04/15 09:04:58;;;;;;;25.90;24.30;;;;;;;;;;5037020;28;20974;-78
2023/04/15 09:07:25;;;;;;;25.27;23.47;;;;;;;;;;5035904;28;20452;-78
2023/04/15 09:09:52;;;;;;;25.47;23.87;;;;;;;;;;5036907;28;20442;-78
2023/04/15 09:12:20;;;;;;;28.70;26.50;;;;;;;;;;5036458;28;20463;-78
2023/04/15 09:14:48;;;;;;;27.33;25.33;;;;;;;;;;5036411;28;20451;-78
2023/04/15 09:17:19;;;;;;;27.30;25.43;;;;;;;;;;5036555;28;20406;-77
2023/04/15 09:19:46;;;;;;;26.17;24.30;;;;;;;;;;5036130;28;20446;-78
2023/04/15 09:22:13;;;;;;;25.63;23.83;;;;;;;;;;5036095;28;20406;-78
2023/04/15 09:24:42;;;;;;;27.03;25.17;;;;;;;;;;5036199;28;20426;-78
2023/04/15 09:27:09;;;;;;;26.03;24.33;;;;;;;;;;5035690;28;20918;-78
2023/04/15 09:29:38;;;;;;;25.37;23.67;;;;;;;;;;5035740;28;20500;-78
2023/04/15 09:32:12;;;;;;;26.90;24.90;;;;;;;;;;5035440;28;20895;-79
2023/04/15 09:34:39;;;;;;;26.40;24.50;;;;;;;;;;5035112;28;20430;-77
2023/04/15 09:37:06;;;;;;;27.13;25.13;;;;;;;;;;5034728;28;20501;-78
2023/04/15 09:39:46;;;;;;;32.10;29.20;;;;;;;;;;5035011;28;20492;-78
2023/04/15 09:42:13;;;;;;;26.67;24.93;;;;;;;;;;5035822;28;20450;-78
2023/04/15 09:44:42;;;;;;;29.17;27.13;;;;;;;;;;5035520;28;20775;-77
2023/04/15 09:47:09;;;;;;;28.23;26.43;;;;;;;;;;5035369;28;21261;-78
2023/04/15 09:49:36;;;;;;;27.90;26.07;;;;;;;;;;5035313;28;20547;-77
2023/04/15 09:52:04;;;;;;;29.53;27.57;;;;;;;;;;5035324;28;20452;-78
2023/04/15 09:54:35;;;;;;;27.70;26.00;;;;;;;;;;5035492;28;20447;-78
2023/04/15 09:57:06;;;;;;;23.73;22.43;;;;;;;;;;5034878;28;20535;-79
2023/04/15 09:59:33;;;;;;;28.70;26.80;;;;;;;;;;5038082;28;20483;-79
2023/04/15 10:02:02;;;;;;;26.67;24.87;;;;;;;;;;5040300;28;20727;-79
2023/04/15 10:04:30;;;;;;;28.47;26.70;;;;;;;;;;5041001;28;20459;-81
2023/04/15 10:06:57;;;;;;;27.40;25.50;;;;;;;;;;5040198;28;20535;-79
2023/04/15 10:09:25;;;;;;;28.40;26.60;;;;;;;;;;5040565;28;20562;-79
2023/04/15 10:11:52;;;;;;;30.90;28.90;;;;;;;;;;5040320;28;20472;-79
2023/04/15 10:14:20;;;;;;;29.97;28.17;;;;;;;;;;5040349;28;20506;-79
2023/04/15 10:16:48;;;;;;;32.23;30.20;;;;;;;;;;5041253;28;20452;-80
2023/04/15 10:19:19;;;;;;;32.20;30.20;;;;;;;;;;5040367;28;20482;-80
2023/04/15 10:21:46;;;;;;;33.93;31.83;;;;;;;;;;5041483;28;20513;-80
2023/04/15 10:24:13;;;;;;;33.80;31.67;;;;;;;;;;5040545;28;20444;-80
2023/04/15 10:26:40;;;;;;;33.90;31.70;;;;;;;;;;5039580;28;20458;-80
2023/04/15 10:29:08;;;;;;;35.87;33.63;;;;;;;;;;5035261;28;20537;-78
2023/04/15 10:31:37;;;;;;;43.70;41.27;;;;;;;;;;5036289;28;20505;-78
2023/04/15 10:34:05;;;;;;;49.10;46.20;;;;;;;;;;5037601;28;20425;-79
2023/04/15 10:36:33;;;;;;;47.27;44.57;;;;;;;;;;5037661;28;20940;-78
2023/04/15 10:39:00;;;;;;;53.87;51.07;;;;;;;;;;5036723;28;20502;-79
2023/04/15 10:41:30;;;;;;;55.83;52.97;;;;;;;;;;5037699;28;20436;-79
2023/04/15 10:43:57;;;;;;;53.20;50.50;;;;;;;;;;5038713;28;20462;-80
2023/04/15 10:46:25;;;;;;;52.00;49.30;;;;;;;;;;5040979;28;20479;-79
2023/04/15 10:48:54;;;;;;;57.27;54.27;;;;;;;;;;5042098;28;20553;-79
2023/04/15 10:51:29;;;;;;;54.97;51.90;;;;;;;;;;5040069;28;20545;-81
2023/04/15 10:54:00;;;;;;;59.20;56.10;;;;;;;;;;5038834;28;20459;-86
2023/04/15 10:56:28;;;;;;;56.60;53.63;;;;;;;;;;5038917;28;20451;-79
2023/04/15 10:58:56;;;;;;;52.90;50.10;;;;;;;;;;5039046;28;20470;-79
2023/04/15 11:01:23;;;;;;;55.13;52.33;;;;;;;;;;5038975;28;20447;-83
2023/04/15 11:03:51;;;;;;;60.30;57.20;;;;;;;;;;5038023;28;20430;-79
2023/04/15 11:06:17;;;;;;;62.23;58.93;;;;;;;;;;5037579;28;20581;-81
2023/04/15 11:08:55;;;;;;;59.93;56.83;;;;;;;;;;5037695;28;20873;-77
2023/04/15 11:11:23;;;;;;;60.67;57.70;;;;;;;;;;5037941;28;20447;-78
2023/04/15 11:13:51;;;;;;;60.13;57.20;;;;;;;;;;5039225;28;20426;-79
2023/04/15 11:16:18;;;;;;;59.57;56.67;;;;;;;;;;5039839;28;20424;-78
2023/04/15 11:18:54;;;;;;;55.97;53.17;;;;;;;;;;5038282;28;20483;-79
2023/04/15 11:21:24;;;;;;;57.73;54.83;;;;;;;;;;5038720;28;20865;-79
2023/04/15 11:23:51;;;;;;;55.53;52.70;;;;;;;;;;5038294;28;20487;-79
2023/04/15 11:26:18;;;;;;;57.33;54.33;;;;;;;;;;5037363;28;20466;-78
2023/04/15 11:28:47;;;;;;;58.10;55.10;;;;;;;;;;5038156;28;20442;-78
2023/04/15 11:31:15;;;;;;;56.40;53.40;;;;;;;;;;5038369;28;20426;-78
2023/04/15 11:33:46;;;;;;;59.00;56.10;;;;;;;;;;5038043;28;20430;-78
2023/04/15 11:36:13;;;;;;;60.33;57.20;;;;;;;;;;5037076;28;20509;-78
2023/04/15 11:38:43;;;;;;;57.63;54.73;;;;;;;;;;5037247;28;20479;-78
2023/04/15 11:41:10;;;;;;;55.80;53.10;;;;;;;;;;5037686;28;20931;-78
2023/04/15 11:43:37;;;;;;;54.27;51.50;;;;;;;;;;5037634;28;20451;-78
2023/04/15 11:46:07;;;;;;;58.73;55.70;;;;;;;;;;5037407;28;20461;-78
2023/04/15 11:48:35;;;;;;;55.97;53.20;;;;;;;;;;5038596;28;20518;-78
2023/04/15 11:51:02;;;;;;;52.23;49.63;;;;;;;;;;5040164;28;20456;-79
2023/04/15 11:53:40;;;;;;;53.57;50.50;;;;;;;;;;5042312;28;20472;-77
2023/04/15 11:56:07;;;;;;;55.17;52.43;;;;;;;;;;5040579;28;20856;-79
2023/04/15 11:58:36;;;;;;;52.63;49.93;;;;;;;;;;5038828;28;20475;-78
2023/04/15 12:01:03;;;;;;;51.20;48.80;;;;;;;;;;5039860;28;20426;-79
2023/04/15 12:03:32;;;;;;;50.97;48.47;;;;;;;;;;5045543;28;20937;-80
2023/04/15 12:06:10;;;;;;;51.57;48.97;;;;;;;;;;5045185;28;20454;-79
2023/04/15 12:08:52;;;;;;;53.23;50.77;;;;;;;;;;5042914;28;20883;-79
2023/04/15 12:11:20;;;;;;;53.43;50.83;;;;;;;;;;5044445;28;20480;-79
2023/04/15 12:13:51;;;;;;;54.67;51.87;;;;;;;;;;5045285;28;20546;-79
2023/04/15 12:16:18;;;;;;;53.57;51.07;;;;;;;;;;5043340;28;20531;-79
2023/04/15 12:18:47;;;;;;;54.40;51.80;;;;;;;;;;5042593;28;20550;-79
2023/04/15 12:21:14;;;;;;;53.50;50.90;;;;;;;;;;5043556;28;20872;-79
2023/04/15 12:23:49;;;;;;;50.57;48.17;;;;;;;;;;5043711;28;20422;-79
2023/04/15 12:26:16;;;;;;;51.70;49.20;;;;;;;;;;5041307;28;20453;-79
2023/04/15 12:28:43;;;;;;;49.33;47.00;;;;;;;;;;5041706;28;20487;-80
2023/04/15 12:31:10;;;;;;;50.17;47.67;;;;;;;;;;5041297;28;20432;-79
2023/04/15 12:33:37;;;;;;;49.33;46.90;;;;;;;;;;5041874;28;20440;-79
2023/04/15 12:36:07;;;;;;;53.10;50.30;;;;;;;;;;5039127;28;20455;-79
2023/04/15 12:38:34;;;;;;;54.03;51.40;;;;;;;;;;5038625;28;20475;-78
2023/04/15 12:41:01;;;;;;;52.73;50.03;;;;;;;;;;5037683;28;20562;-79
2023/04/15 12:43:29;;;;;;;53.00;50.20;;;;;;;;;;5037436;28;20777;-79
2023/04/15 12:45:56;;;;;;;53.93;51.23;;;;;;;;;;5037233;28;20560;-79
2023/04/15 12:48:23;;;;;;;52.97;50.37;;;;;;;;;;5037405;28;20525;-80
2023/04/15 12:50:50;;;;;;;50.43;47.40;;;;;;;;;;5036466;28;20529;-80
2023/04/15 12:53:18;;;;;;;51.70;49.10;;;;;;;;;;5038416;28;20846;-79
2023/04/15 12:55:46;;;;;;;47.77;45.40;;;;;;;;;;5037208;28;20451;-78
2023/04/15 12:58:13;;;;;;;48.43;46.03;;;;;;;;;;5037210;28;20955;-79
2023/04/15 13:00:40;;;;;;;50.43;48.00;;;;;;;;;;5037262;28;20521;-79
2023/04/15 13:03:07;;;;;;;50.57;48.10;;;;;;;;;;5036937;28;20447;-79
2023/04/15 13:05:35;;;;;;;48.90;46.60;;;;;;;;;;5037883;28;20455;-79
2023/04/15 13:08:03;;;;;;;50.23;47.83;;;;;;;;;;5037444;28;20550;-79
2023/04/15 13:10:31;;;;;;;48.13;45.93;;;;;;;;;;5037216;28;20921;-80
2023/04/15 13:12:59;;;;;;;47.90;45.73;;;;;;;;;;5036555;28;20471;-80
2023/04/15 13:15:26;;;;;;;48.37;46.10;;;;;;;;;;5038177;28;20455;-78
2023/04/15 13:17:52;;;;;;;46.70;44.60;;;;;;;;;;5036278;28;20451;-81
2023/04/15 13:20:20;;;;;;;48.90;46.60;;;;;;;;;;5034829;28;20475;-85
2023/04/15 13:22:47;;;;;;;44.80;42.80;;;;;;;;;;5036536;28;20529;-83
2023/04/15 13:25:14;;;;;;;37.33;35.60;;;;;;;;;;5039049;28;20438;-82
2023/04/15 13:27:42;;;;;;;37.07;35.37;;;;;;;;;;5036946;28;20494;-82
2023/04/15 13:30:10;;;;;;;36.23;34.53;;;;;;;;;;5036162;28;20458;-82
2023/04/15 13:32:37;;;;;;;40.53;38.53;;;;;;;;;;5036836;28;20505;-78
2023/04/15 13:35:04;;;;;;;37.97;36.17;;;;;;;;;;5035803;28;20430;-78
2023/04/15 13:37:31;;;;;;;40.83;38.73;;;;;;;;;;5035458;28;20477;-78
2023/04/15 13:39:58;;;;;;;40.50;38.40;;;;;;;;;;5036027;28;20485;-77
2023/04/15 13:42:26;;;;;;;40.73;38.83;;;;;;;;;;5036171;28;20467;-77
2023/04/15 13:44:54;;;;;;;39.63;37.43;;;;;;;;;;5035019;28;20456;-78
2023/04/15 13:47:21;;;;;;;41.50;39.30;;;;;;;;;;5034658;28;21060;-78
2023/04/15 13:49:48;;;;;;;42.60;40.40;;;;;;;;;;5034734;28;20510;-78
2023/04/15 13:52:15;;;;;;;42.23;39.90;;;;;;;;;;5034820;28;20442;-78
2023/04/15 13:54:42;;;;;;;44.67;42.20;;;;;;;;;;5034351;28;20777;-78
2023/04/15 13:57:09;;;;;;;43.30;40.90;;;;;;;;;;5034610;28;20791;-78
2023/04/15 13:59:36;;;;;;;44.57;42.27;;;;;;;;;;5034851;28;20476;-77
2023/04/15 14:02:05;;;;;;;40.90;38.80;;;;;;;;;;5035269;28;20459;-78
2023/04/15 14:04:32;;;;;;;45.30;42.83;;;;;;;;;;5033869;28;20438;-78
2023/04/15 14:06:59;;;;;;;44.97;42.47;;;;;;;;;;5033066;28;20527;-77
2023/04/15 14:09:26;;;;;;;43.23;40.67;;;;;;;;;;5033892;28;20450;-77
2023/04/15 14:11:53;;;;;;;44.07;41.40;;;;;;;;;;5033695;28;20458;-77
2023/04/15 14:14:20;;;;;;;43.47;40.87;;;;;;;;;;5032902;28;20468;-77
2023/04/15 14:16:47;;;;;;;41.63;39.30;;;;;;;;;;5032840;28;20998;-77
2023/04/15 14:19:16;;;;;;;42.30;40.00;;;;;;;;;;5032960;28;20481;-77